sensor_id;sensor_type;location;lat;lon;timestamp;temperature;humidity
78479;SHT31;67769;51.972;5.668;2023-03-08T00:00:22;5.3;60.3
78479;SHT31;67769;51.972;5.668;2023-03-08T00:02:52;5.3;60.1
78479;SHT31;67769;51.972;5.668;2023-03-08T00:05:23;5.2;60.3
78479;SHT31;67769;51.972;5.668;2023-03-08T00:07:53;5.2;60.2
78479;SHT31;67769;51.972;5.668;2023-03-08T00:10:23;5.2;60.6
78479;SHT31;67769;51.972;5.668;2023-03-08T00:12:53;5.2;60.7
78479;SHT31;67769;51.972;5.668;2023-03-08T00:15:22;5.2;60.8
78479;SHT31;67769;51.972;5.668;2023-03-08T00:17:52;5.2;60.9
78479;SHT31;67769;51.972;5.668;2023-03-08T00:20:24;5.2;61.0
78479;SHT31;67769;51.972;5.668;2023-03-08T00:22:53;5.1;61.0
78479;SHT31;67769;51.972;5.668;2023-03-08T00:25:23;5.1;61.0
78479;SHT31;67769;51.972;5.668;2023-03-08T00:27:52;5.1;61.2
78479;SHT31;67769;51.972;5.668;2023-03-08T00:30:22;5.1;61.5
78479;SHT31;67769;51.972;5.668;2023-03-08T00:32:52;5.1;61.3
78479;SHT31;67769;51.972;5.668;2023-03-08T00:35:22;5.1;61.3
78479;SHT31;67769;51.972;5.668;2023-03-08T00:37:51;5.0;61.6
78479;SHT31;67769;51.972;5.668;2023-03-08T00:40:22;5.0;61.3
78479;SHT31;67769;51.972;5.668;2023-03-08T00:42:52;5.0;61.7
78479;SHT31;67769;51.972;5.668;2023-03-08T00:45:22;5.0;61.6
78479;SHT31;67769;51.972;5.668;2023-03-08T00:47:51;5.0;61.8
78479;SHT31;67769;51.972;5.668;2023-03-08T00:50:21;5.0;61.9
78479;SHT31;67769;51.972;5.668;2023-03-08T00:52:50;5.0;62.1
78479;SHT31;67769;51.972;5.668;2023-03-08T00:55:20;4.9;62.5
78479;SHT31;67769;51.972;5.668;2023-03-08T00:57:49;4.9;62.3
78479;SHT31;67769;51.972;5.668;2023-03-08T01:00:20;4.9;62.2
78479;SHT31;67769;51.972;5.668;2023-03-08T01:02:50;4.9;62.3
78479;SHT31;67769;51.972;5.668;2023-03-08T01:05:19;4.8;62.4
78479;SHT31;67769;51.972;5.668;2023-03-08T01:07:49;4.8;62.6
78479;SHT31;67769;51.972;5.668;2023-03-08T01:10:19;4.8;62.6
78479;SHT31;67769;51.972;5.668;2023-03-08T01:12:48;4.8;62.7
78479;SHT31;67769;51.972;5.668;2023-03-08T01:15:18;4.8;62.8
78479;SHT31;67769;51.972;5.668;2023-03-08T01:17:48;4.7;62.7
78479;SHT31;67769;51.972;5.668;2023-03-08T01:20:17;4.7;62.8
78479;SHT31;67769;51.972;5.668;2023-03-08T01:22:47;4.7;62.8
78479;SHT31;67769;51.972;5.668;2023-03-08T01:25:17;4.7;62.5
78479;SHT31;67769;51.972;5.668;2023-03-08T01:27:47;4.7;62.7
78479;SHT31;67769;51.972;5.668;2023-03-08T01:30:17;4.7;63.2
78479;SHT31;67769;51.972;5.668;2023-03-08T01:32:47;4.7;62.9
78479;SHT31;67769;51.972;5.668;2023-03-08T01:35:17;4.7;63.1
78479;SHT31;67769;51.972;5.668;2023-03-08T01:37:49;4.7;63.0
78479;SHT31;67769;51.972;5.668;2023-03-08T01:40:20;4.7;63.1
78479;SHT31;67769;51.972;5.668;2023-03-08T01:42:52;4.7;63.5
78479;SHT31;67769;51.972;5.668;2023-03-08T01:47:36;4.7;63.0
78479;SHT31;67769;51.972;5.668;2023-03-08T01:50:10;4.8;63.1
78479;SHT31;67769;51.972;5.668;2023-03-08T01:52:44;4.8;63.0
78479;SHT31;67769;51.972;5.668;2023-03-08T01:55:16;4.8;63.2
78479;SHT31;67769;51.972;5.668;2023-03-08T01:57:50;4.8;63.2
78479;SHT31;67769;51.972;5.668;2023-03-08T02:00:24;4.8;63.0
78479;SHT31;67769;51.972;5.668;2023-03-08T02:02:58;4.8;63.0
78479;SHT31;67769;51.972;5.668;2023-03-08T02:05:30;4.8;63.0
78479;SHT31;67769;51.972;5.668;2023-03-08T02:08:02;4.8;63.0
78479;SHT31;67769;51.972;5.668;2023-03-08T02:10:33;4.8;62.9
78479;SHT31;67769;51.972;5.668;2023-03-08T02:13:05;4.8;62.9
78479;SHT31;67769;51.972;5.668;2023-03-08T02:15:36;4.7;63.2
78479;SHT31;67769;51.972;5.668;2023-03-08T02:18:06;4.7;63.0
78479;SHT31;67769;51.972;5.668;2023-03-08T02:20:38;4.7;62.8
78479;SHT31;67769;51.972;5.668;2023-03-08T02:23:11;4.7;63.1
78479;SHT31;67769;51.972;5.668;2023-03-08T02:25:51;4.7;63.3
78479;SHT31;67769;51.972;5.668;2023-03-08T02:28:23;4.7;63.3
78479;SHT31;67769;51.972;5.668;2023-03-08T02:30:55;4.7;63.2
78479;SHT31;67769;51.972;5.668;2023-03-08T02:33:27;4.7;63.3
78479;SHT31;67769;51.972;5.668;2023-03-08T02:35:59;4.7;63.5
78479;SHT31;67769;51.972;5.668;2023-03-08T02:38:30;4.7;63.4
78479;SHT31;67769;51.972;5.668;2023-03-08T02:41:01;4.7;63.8
78479;SHT31;67769;51.972;5.668;2023-03-08T02:43:31;4.7;64.0
78479;SHT31;67769;51.972;5.668;2023-03-08T02:46:01;4.7;63.7
78479;SHT31;67769;51.972;5.668;2023-03-08T02:48:30;4.7;63.5
78479;SHT31;67769;51.972;5.668;2023-03-08T02:51:00;4.7;63.5
78479;SHT31;67769;51.972;5.668;2023-03-08T02:53:30;4.7;63.7
78479;SHT31;67769;51.972;5.668;2023-03-08T02:55:59;4.7;63.5
78479;SHT31;67769;51.972;5.668;2023-03-08T02:58:29;4.7;63.8
78479;SHT31;67769;51.972;5.668;2023-03-08T03:00:59;4.7;63.9
78479;SHT31;67769;51.972;5.668;2023-03-08T03:03:28;4.7;63.9
78479;SHT31;67769;51.972;5.668;2023-03-08T03:05:58;4.8;63.8
78479;SHT31;67769;51.972;5.668;2023-03-08T03:08:28;4.8;63.8
78479;SHT31;67769;51.972;5.668;2023-03-08T03:10:58;4.8;63.8
78479;SHT31;67769;51.972;5.668;2023-03-08T03:13:27;4.8;63.8
78479;SHT31;67769;51.972;5.668;2023-03-08T03:15:57;4.8;63.8
78479;SHT31;67769;51.972;5.668;2023-03-08T03:18:27;4.8;64.2
78479;SHT31;67769;51.972;5.668;2023-03-08T03:21:01;4.8;64.1
78479;SHT31;67769;51.972;5.668;2023-03-08T03:23:30;4.8;64.4
78479;SHT31;67769;51.972;5.668;2023-03-08T03:26:05;4.7;64.5
78479;SHT31;67769;51.972;5.668;2023-03-08T03:28:35;4.7;64.5
78479;SHT31;67769;51.972;5.668;2023-03-08T03:31:08;4.7;64.7
78479;SHT31;67769;51.972;5.668;2023-03-08T03:33:39;4.7;64.9
78479;SHT31;67769;51.972;5.668;2023-03-08T03:36:11;4.7;65.0
78479;SHT31;67769;51.972;5.668;2023-03-08T03:38:42;4.7;65.1
78479;SHT31;67769;51.972;5.668;2023-03-08T03:41:14;4.6;65.3
78479;SHT31;67769;51.972;5.668;2023-03-08T03:43:45;4.6;65.5
78479;SHT31;67769;51.972;5.668;2023-03-08T03:46:18;4.6;65.4
78479;SHT31;67769;51.972;5.668;2023-03-08T03:48:48;4.6;65.8
78479;SHT31;67769;51.972;5.668;2023-03-08T03:51:19;4.6;65.9
78479;SHT31;67769;51.972;5.668;2023-03-08T03:53:50;4.6;66.1
78479;SHT31;67769;51.972;5.668;2023-03-08T03:56:21;4.6;66.1
78479;SHT31;67769;51.972;5.668;2023-03-08T03:58:53;4.6;66.1
78479;SHT31;67769;51.972;5.668;2023-03-08T04:01:24;4.6;66.4
78479;SHT31;67769;51.972;5.668;2023-03-08T04:03:55;4.6;66.1
78479;SHT31;67769;51.972;5.668;2023-03-08T04:06:27;4.6;66.2
78479;SHT31;67769;51.972;5.668;2023-03-08T04:08:58;4.6;66.3
78479;SHT31;67769;51.972;5.668;2023-03-08T04:11:32;4.6;66.3
78479;SHT31;67769;51.972;5.668;2023-03-08T04:14:03;4.6;66.4
78479;SHT31;67769;51.972;5.668;2023-03-08T04:16:35;4.6;66.2
78479;SHT31;67769;51.972;5.668;2023-03-08T04:19:06;4.6;66.2
78479;SHT31;67769;51.972;5.668;2023-03-08T04:21:38;4.6;66.0
78479;SHT31;67769;51.972;5.668;2023-03-08T04:24:08;4.6;66.0
78479;SHT31;67769;51.972;5.668;2023-03-08T04:26:38;4.7;66.2
78479;SHT31;67769;51.972;5.668;2023-03-08T04:29:09;4.7;66.2
78479;SHT31;67769;51.972;5.668;2023-03-08T04:31:39;4.7;65.9
78479;SHT31;67769;51.972;5.668;2023-03-08T04:34:08;4.7;65.7
78479;SHT31;67769;51.972;5.668;2023-03-08T04:36:38;4.7;65.6
78479;SHT31;67769;51.972;5.668;2023-03-08T04:39:07;4.7;65.3
78479;SHT31;67769;51.972;5.668;2023-03-08T04:41:37;4.7;65.5
78479;SHT31;67769;51.972;5.668;2023-03-08T04:44:07;4.7;65.4
78479;SHT31;67769;51.972;5.668;2023-03-08T04:46:36;4.7;65.3
78479;SHT31;67769;51.972;5.668;2023-03-08T04:49:06;4.7;65.5
78479;SHT31;67769;51.972;5.668;2023-03-08T04:51:35;4.6;65.7
78479;SHT31;67769;51.972;5.668;2023-03-08T04:54:05;4.6;65.6
78479;SHT31;67769;51.972;5.668;2023-03-08T04:56:35;4.6;65.7
78479;SHT31;67769;51.972;5.668;2023-03-08T04:59:06;4.6;65.7
78479;SHT31;67769;51.972;5.668;2023-03-08T05:01:37;4.6;65.6
78479;SHT31;67769;51.972;5.668;2023-03-08T05:04:10;4.6;65.5
78479;SHT31;67769;51.972;5.668;2023-03-08T05:06:40;4.5;65.6
78479;SHT31;67769;51.972;5.668;2023-03-08T05:09:10;4.5;65.3
78479;SHT31;67769;51.972;5.668;2023-03-08T05:11:39;4.5;65.3
78479;SHT31;67769;51.972;5.668;2023-03-08T05:14:10;4.5;65.7
78479;SHT31;67769;51.972;5.668;2023-03-08T05:16:39;4.5;65.7
78479;SHT31;67769;51.972;5.668;2023-03-08T05:19:09;4.5;65.8
78479;SHT31;67769;51.972;5.668;2023-03-08T05:21:38;4.4;65.8
78479;SHT31;67769;51.972;5.668;2023-03-08T05:24:08;4.4;65.8
78479;SHT31;67769;51.972;5.668;2023-03-08T05:26:38;4.4;65.9
78479;SHT31;67769;51.972;5.668;2023-03-08T05:29:10;4.4;66.2
78479;SHT31;67769;51.972;5.668;2023-03-08T05:31:39;4.4;66.4
78479;SHT31;67769;51.972;5.668;2023-03-08T05:34:11;4.4;66.5
78479;SHT31;67769;51.972;5.668;2023-03-08T05:36:41;4.4;66.4
78479;SHT31;67769;51.972;5.668;2023-03-08T05:39:11;4.4;66.3
78479;SHT31;67769;51.972;5.668;2023-03-08T05:41:41;4.4;66.4
78479;SHT31;67769;51.972;5.668;2023-03-08T05:44:10;4.4;66.5
78479;SHT31;67769;51.972;5.668;2023-03-08T05:46:40;4.4;66.5
78479;SHT31;67769;51.972;5.668;2023-03-08T05:49:09;4.4;66.4
78479;SHT31;67769;51.972;5.668;2023-03-08T05:51:39;4.4;66.7
78479;SHT31;67769;51.972;5.668;2023-03-08T05:54:09;4.4;66.6
78479;SHT31;67769;51.972;5.668;2023-03-08T05:56:39;4.4;66.8
78479;SHT31;67769;51.972;5.668;2023-03-08T05:59:08;4.4;66.9
78479;SHT31;67769;51.972;5.668;2023-03-08T06:01:38;4.4;67.0
78479;SHT31;67769;51.972;5.668;2023-03-08T06:04:08;4.4;67.2
78479;SHT31;67769;51.972;5.668;2023-03-08T06:06:37;4.4;67.3
78479;SHT31;67769;51.972;5.668;2023-03-08T06:09:09;4.5;67.4
78479;SHT31;67769;51.972;5.668;2023-03-08T06:11:38;4.5;67.7
78479;SHT31;67769;51.972;5.668;2023-03-08T06:14:08;4.5;67.8
78479;SHT31;67769;51.972;5.668;2023-03-08T06:16:38;4.5;67.5
78479;SHT31;67769;51.972;5.668;2023-03-08T06:19:09;4.5;67.3
78479;SHT31;67769;51.972;5.668;2023-03-08T06:21:40;4.5;67.1
78479;SHT31;67769;51.972;5.668;2023-03-08T06:24:10;4.5;67.0
78479;SHT31;67769;51.972;5.668;2023-03-08T06:26:40;4.5;66.9
78479;SHT31;67769;51.972;5.668;2023-03-08T06:29:11;4.5;67.0
78479;SHT31;67769;51.972;5.668;2023-03-08T06:31:41;4.5;67.1
78479;SHT31;67769;51.972;5.668;2023-03-08T06:34:11;4.5;67.2
78479;SHT31;67769;51.972;5.668;2023-03-08T06:36:41;4.4;67.2
78479;SHT31;67769;51.972;5.668;2023-03-08T06:39:10;4.4;67.3
78479;SHT31;67769;51.972;5.668;2023-03-08T06:41:40;4.4;67.4
78479;SHT31;67769;51.972;5.668;2023-03-08T06:44:10;4.4;67.6
78479;SHT31;67769;51.972;5.668;2023-03-08T06:46:39;4.4;67.5
78479;SHT31;67769;51.972;5.668;2023-03-08T06:49:10;4.4;67.6
78479;SHT31;67769;51.972;5.668;2023-03-08T06:51:39;4.4;67.5
78479;SHT31;67769;51.972;5.668;2023-03-08T06:54:09;4.4;67.7
78479;SHT31;67769;51.972;5.668;2023-03-08T06:56:45;4.4;67.8
78479;SHT31;67769;51.972;5.668;2023-03-08T06:59:15;4.4;68.1
78479;SHT31;67769;51.972;5.668;2023-03-08T07:01:44;4.4;68.1
78479;SHT31;67769;51.972;5.668;2023-03-08T07:04:14;4.3;68.2
78479;SHT31;67769;51.972;5.668;2023-03-08T07:06:44;4.3;68.2
78479;SHT31;67769;51.972;5.668;2023-03-08T07:09:14;4.3;68.3
78479;SHT31;67769;51.972;5.668;2023-03-08T07:11:44;4.3;68.4
78479;SHT31;67769;51.972;5.668;2023-03-08T07:14:14;4.3;68.5
78479;SHT31;67769;51.972;5.668;2023-03-08T07:16:43;4.3;68.6
78479;SHT31;67769;51.972;5.668;2023-03-08T07:19:13;4.3;68.6
78479;SHT31;67769;51.972;5.668;2023-03-08T07:21:43;4.3;68.8
78479;SHT31;67769;51.972;5.668;2023-03-08T07:24:14;4.3;68.9
78479;SHT31;67769;51.972;5.668;2023-03-08T07:26:44;4.4;68.9
78479;SHT31;67769;51.972;5.668;2023-03-08T07:29:13;4.4;69.0
78479;SHT31;67769;51.972;5.668;2023-03-08T07:31:43;4.4;69.0
78479;SHT31;67769;51.972;5.668;2023-03-08T07:34:12;4.4;69.5
78479;SHT31;67769;51.972;5.668;2023-03-08T07:36:42;4.4;69.3
78479;SHT31;67769;51.972;5.668;2023-03-08T07:39:12;4.4;69.5
78479;SHT31;67769;51.972;5.668;2023-03-08T07:41:41;4.5;69.4
78479;SHT31;67769;51.972;5.668;2023-03-08T07:44:11;4.5;69.8
78479;SHT31;67769;51.972;5.668;2023-03-08T07:46:40;4.5;69.2
78479;SHT31;67769;51.972;5.668;2023-03-08T07:49:10;4.6;69.1
78479;SHT31;67769;51.972;5.668;2023-03-08T07:51:39;4.6;69.0
78479;SHT31;67769;51.972;5.668;2023-03-08T07:54:11;4.7;69.4
78479;SHT31;67769;51.972;5.668;2023-03-08T07:56:43;4.7;68.6
78479;SHT31;67769;51.972;5.668;2023-03-08T07:59:12;4.7;68.4
78479;SHT31;67769;51.972;5.668;2023-03-08T08:01:42;4.7;68.4
78479;SHT31;67769;51.972;5.668;2023-03-08T08:04:12;4.8;68.5
78479;SHT31;67769;51.972;5.668;2023-03-08T08:06:41;4.8;68.4
78479;SHT31;67769;51.972;5.668;2023-03-08T08:09:12;4.8;68.8
78479;SHT31;67769;51.972;5.668;2023-03-08T08:11:43;4.8;68.4
78479;SHT31;67769;51.972;5.668;2023-03-08T08:14:13;4.9;67.9
78479;SHT31;67769;51.972;5.668;2023-03-08T08:16:43;4.9;68.0
78479;SHT31;67769;51.972;5.668;2023-03-08T08:19:12;4.9;67.8
78479;SHT31;67769;51.972;5.668;2023-03-08T08:21:43;4.9;67.8
78479;SHT31;67769;51.972;5.668;2023-03-08T08:24:15;4.9;67.8
78479;SHT31;67769;51.972;5.668;2023-03-08T08:26:44;4.9;68.4
78479;SHT31;67769;51.972;5.668;2023-03-08T08:29:14;4.9;67.8
78479;SHT31;67769;51.972;5.668;2023-03-08T08:31:44;5.0;68.1
78479;SHT31;67769;51.972;5.668;2023-03-08T08:34:13;5.0;67.7
78479;SHT31;67769;51.972;5.668;2023-03-08T08:36:43;5.0;67.7
78479;SHT31;67769;51.972;5.668;2023-03-08T08:39:13;5.0;67.8
78479;SHT31;67769;51.972;5.668;2023-03-08T08:41:42;5.0;67.7
78479;SHT31;67769;51.972;5.668;2023-03-08T08:44:12;5.0;67.9
78479;SHT31;67769;51.972;5.668;2023-03-08T08:46:41;5.1;67.4
78479;SHT31;67769;51.972;5.668;2023-03-08T08:49:11;5.1;67.2
78479;SHT31;67769;51.972;5.668;2023-03-08T08:51:40;5.1;67.1
78479;SHT31;67769;51.972;5.668;2023-03-08T08:54:10;5.1;67.2
78479;SHT31;67769;51.972;5.668;2023-03-08T08:56:40;5.1;67.3
78479;SHT31;67769;51.972;5.668;2023-03-08T08:59:11;5.1;67.4
78479;SHT31;67769;51.972;5.668;2023-03-08T09:01:42;5.2;67.1
78479;SHT31;67769;51.972;5.668;2023-03-08T09:04:13;5.2;67.1
78479;SHT31;67769;51.972;5.668;2023-03-08T09:06:47;5.2;67.2
78479;SHT31;67769;51.972;5.668;2023-03-08T09:09:17;5.2;66.9
78479;SHT31;67769;51.972;5.668;2023-03-08T09:11:47;5.2;67.0
78479;SHT31;67769;51.972;5.668;2023-03-08T09:14:16;5.3;67.3
78479;SHT31;67769;51.972;5.668;2023-03-08T09:16:46;5.3;66.6
78479;SHT31;67769;51.972;5.668;2023-03-08T09:19:16;5.3;66.3
78479;SHT31;67769;51.972;5.668;2023-03-08T09:21:46;5.3;66.0
78479;SHT31;67769;51.972;5.668;2023-03-08T09:24:17;5.3;66.5
78479;SHT31;67769;51.972;5.668;2023-03-08T09:26:47;5.3;66.7
78479;SHT31;67769;51.972;5.668;2023-03-08T09:29:16;5.4;65.8
78479;SHT31;67769;51.972;5.668;2023-03-08T09:31:46;5.4;65.2
78479;SHT31;67769;51.972;5.668;2023-03-08T09:34:15;5.4;66.0
78479;SHT31;67769;51.972;5.668;2023-03-08T09:36:45;5.4;65.4
78479;SHT31;67769;51.972;5.668;2023-03-08T09:39:15;5.4;65.4
78479;SHT31;67769;51.972;5.668;2023-03-08T09:41:51;5.4;65.2
78479;SHT31;67769;51.972;5.668;2023-03-08T09:44:50;5.4;65.3
78479;SHT31;67769;51.972;5.668;2023-03-08T09:47:31;5.5;64.4
78479;SHT31;67769;51.972;5.668;2023-03-08T09:50:27;5.5;64.2
78479;SHT31;67769;51.972;5.668;2023-03-08T09:53:05;5.5;64.9
78479;SHT31;67769;51.972;5.668;2023-03-08T09:55:46;5.5;64.7
78479;SHT31;67769;51.972;5.668;2023-03-08T09:58:23;5.5;64.5
78479;SHT31;67769;51.972;5.668;2023-03-08T10:01:01;5.5;64.5
78479;SHT31;67769;51.972;5.668;2023-03-08T10:04:33;5.5;64.0
78479;SHT31;67769;51.972;5.668;2023-03-08T10:07:14;5.6;65.4
78479;SHT31;67769;51.972;5.668;2023-03-08T10:10:01;5.6;64.2
78479;SHT31;67769;51.972;5.668;2023-03-08T10:12:41;5.7;62.9
78479;SHT31;67769;51.972;5.668;2023-03-08T10:15:16;5.7;63.2
78479;SHT31;67769;51.972;5.668;2023-03-08T10:17:51;5.8;64.2
78479;SHT31;67769;51.972;5.668;2023-03-08T10:20:25;5.9;64.3
78479;SHT31;67769;51.972;5.668;2023-03-08T10:22:59;6.0;63.8
78479;SHT31;67769;51.972;5.668;2023-03-08T10:25:30;6.1;62.0
78479;SHT31;67769;51.972;5.668;2023-03-08T10:28:02;6.2;61.1
78479;SHT31;67769;51.972;5.668;2023-03-08T10:30:35;6.3;60.5
78479;SHT31;67769;51.972;5.668;2023-03-08T10:33:08;6.4;61.2
78479;SHT31;67769;51.972;5.668;2023-03-08T10:35:55;6.5;60.4
78479;SHT31;67769;51.972;5.668;2023-03-08T10:38:29;6.5;59.9
78479;SHT31;67769;51.972;5.668;2023-03-08T10:41:00;6.6;60.4
78479;SHT31;67769;51.972;5.668;2023-03-08T10:43:32;6.6;60.9
78479;SHT31;67769;51.972;5.668;2023-03-08T10:46:05;6.6;60.3
78479;SHT31;67769;51.972;5.668;2023-03-08T10:48:35;6.7;60.3
78479;SHT31;67769;51.972;5.668;2023-03-08T10:51:13;6.7;60.5
78479;SHT31;67769;51.972;5.668;2023-03-08T10:53:53;6.7;59.7
78479;SHT31;67769;51.972;5.668;2023-03-08T10:56:29;6.7;59.3
78479;SHT31;67769;51.972;5.668;2023-03-08T10:59:02;6.7;58.5
78479;SHT31;67769;51.972;5.668;2023-03-08T11:01:34;6.7;58.8
78479;SHT31;67769;51.972;5.668;2023-03-08T11:04:14;6.7;59.0
78479;SHT31;67769;51.972;5.668;2023-03-08T11:06:46;6.8;58.5
78479;SHT31;67769;51.972;5.668;2023-03-08T11:09:22;6.8;57.8
78479;SHT31;67769;51.972;5.668;2023-03-08T11:11:53;6.8;57.5
78479;SHT31;67769;51.972;5.668;2023-03-08T11:14:23;6.8;57.2
78479;SHT31;67769;51.972;5.668;2023-03-08T11:17:05;6.8;56.9
78479;SHT31;67769;51.972;5.668;2023-03-08T11:20:43;6.8;57.9
78479;SHT31;67769;51.972;5.668;2023-03-08T11:23:23;6.8;56.2
78479;SHT31;67769;51.972;5.668;2023-03-08T11:26:00;6.8;56.9
78479;SHT31;67769;51.972;5.668;2023-03-08T11:29:40;6.8;57.4
78479;SHT31;67769;51.972;5.668;2023-03-08T11:32:23;6.8;58.0
78479;SHT31;67769;51.972;5.668;2023-03-08T11:35:04;6.8;58.1
78479;SHT31;67769;51.972;5.668;2023-03-08T11:37:45;6.8;57.7
78479;SHT31;67769;51.972;5.668;2023-03-08T11:40:23;6.8;57.8
78479;SHT31;67769;51.972;5.668;2023-03-08T11:43:06;6.9;57.0
78479;SHT31;67769;51.972;5.668;2023-03-08T11:45:44;6.9;57.8
78479;SHT31;67769;51.972;5.668;2023-03-08T11:48:38;6.9;57.3
78479;SHT31;67769;51.972;5.668;2023-03-08T11:51:19;6.9;57.2
78479;SHT31;67769;51.972;5.668;2023-03-08T11:53:58;6.9;57.6
78479;SHT31;67769;51.972;5.668;2023-03-08T11:56:41;6.9;57.8
78479;SHT31;67769;51.972;5.668;2023-03-08T11:59:18;7.0;57.3
78479;SHT31;67769;51.972;5.668;2023-03-08T12:01:52;7.0;57.0
78479;SHT31;67769;51.972;5.668;2023-03-08T12:04:31;7.0;56.5
78479;SHT31;67769;51.972;5.668;2023-03-08T12:07:08;7.0;56.5
78479;SHT31;67769;51.972;5.668;2023-03-08T12:09:51;7.1;56.4
78479;SHT31;67769;51.972;5.668;2023-03-08T12:12:27;7.1;55.7
78479;SHT31;67769;51.972;5.668;2023-03-08T12:15:10;7.1;55.2
78479;SHT31;67769;51.972;5.668;2023-03-08T12:17:45;7.1;55.6
78479;SHT31;67769;51.972;5.668;2023-03-08T12:20:17;7.1;55.1
78479;SHT31;67769;51.972;5.668;2023-03-08T12:22:58;7.1;54.9
78479;SHT31;67769;51.972;5.668;2023-03-08T12:25:31;7.1;55.4
78479;SHT31;67769;51.972;5.668;2023-03-08T12:28:08;7.1;55.9
78479;SHT31;67769;51.972;5.668;2023-03-08T12:30:51;7.1;55.9
78479;SHT31;67769;51.972;5.668;2023-03-08T12:33:25;7.1;56.1
78479;SHT31;67769;51.972;5.668;2023-03-08T12:35:58;7.2;56.0
78479;SHT31;67769;51.972;5.668;2023-03-08T12:38:32;7.2;55.7
78479;SHT31;67769;51.972;5.668;2023-03-08T12:41:03;7.2;55.4
78479;SHT31;67769;51.972;5.668;2023-03-08T12:43:35;7.2;54.9
78479;SHT31;67769;51.972;5.668;2023-03-08T12:46:09;7.2;55.5
78479;SHT31;67769;51.972;5.668;2023-03-08T12:48:47;7.2;54.2
78479;SHT31;67769;51.972;5.668;2023-03-08T12:51:31;7.2;54.2
78479;SHT31;67769;51.972;5.668;2023-03-08T12:54:02;7.2;55.4
78479;SHT31;67769;51.972;5.668;2023-03-08T12:56:36;7.1;55.3
78479;SHT31;67769;51.972;5.668;2023-03-08T12:59:26;7.1;54.3
78479;SHT31;67769;51.972;5.668;2023-03-08T13:02:02;7.1;54.1
78479;SHT31;67769;51.972;5.668;2023-03-08T13:04:34;7.1;54.7
78479;SHT31;67769;51.972;5.668;2023-03-08T13:08:56;7.1;54.9
78479;SHT31;67769;51.972;5.668;2023-03-08T13:11:38;7.0;55.0
78479;SHT31;67769;51.972;5.668;2023-03-08T13:14:24;7.0;54.8
78479;SHT31;67769;51.972;5.668;2023-03-08T13:16:54;7.0;54.2
78479;SHT31;67769;51.972;5.668;2023-03-08T13:19:30;7.0;54.2
78479;SHT31;67769;51.972;5.668;2023-03-08T13:22:09;7.0;54.1
78479;SHT31;67769;51.972;5.668;2023-03-08T13:24:45;7.0;54.3
78479;SHT31;67769;51.972;5.668;2023-03-08T13:27:32;6.9;54.9
78479;SHT31;67769;51.972;5.668;2023-03-08T13:30:21;6.9;55.3
78479;SHT31;67769;51.972;5.668;2023-03-08T13:32:52;6.9;55.4
78479;SHT31;67769;51.972;5.668;2023-03-08T13:35:24;6.9;54.8
78479;SHT31;67769;51.972;5.668;2023-03-08T13:37:56;6.9;54.2
78479;SHT31;67769;51.972;5.668;2023-03-08T13:40:28;6.9;54.7
78479;SHT31;67769;51.972;5.668;2023-03-08T13:43:01;6.9;54.0
78479;SHT31;67769;51.972;5.668;2023-03-08T13:45:31;6.9;54.3
78479;SHT31;67769;51.972;5.668;2023-03-08T13:48:06;6.9;54.5
78479;SHT31;67769;51.972;5.668;2023-03-08T13:50:42;6.9;54.1
78479;SHT31;67769;51.972;5.668;2023-03-08T13:53:16;6.9;53.8
78479;SHT31;67769;51.972;5.668;2023-03-08T13:55:49;6.9;54.1
78479;SHT31;67769;51.972;5.668;2023-03-08T13:58:26;6.9;53.8
78479;SHT31;67769;51.972;5.668;2023-03-08T14:01:03;6.9;54.0
78479;SHT31;67769;51.972;5.668;2023-03-08T14:03:38;6.9;54.1
78479;SHT31;67769;51.972;5.668;2023-03-08T14:06:16;6.9;54.1
78479;SHT31;67769;51.972;5.668;2023-03-08T14:08:46;6.9;53.5
78479;SHT31;67769;51.972;5.668;2023-03-08T14:11:20;6.9;53.2
78479;SHT31;67769;51.972;5.668;2023-03-08T14:13:53;6.9;53.5
78479;SHT31;67769;51.972;5.668;2023-03-08T14:16:27;6.9;54.0
78479;SHT31;67769;51.972;5.668;2023-03-08T14:19:08;6.9;54.0
78479;SHT31;67769;51.972;5.668;2023-03-08T14:21:34;6.9;54.2
78479;SHT31;67769;51.972;5.668;2023-03-08T14:24:04;7.0;54.4
78479;SHT31;67769;51.972;5.668;2023-03-08T14:26:39;7.0;54.4
78479;SHT31;67769;51.972;5.668;2023-03-08T14:29:16;7.1;55.0
78479;SHT31;67769;51.972;5.668;2023-03-08T14:33:21;7.1;54.8
78479;SHT31;67769;51.972;5.668;2023-03-08T14:35:59;7.2;55.4
78479;SHT31;67769;51.972;5.668;2023-03-08T14:38:32;7.2;55.4
78479;SHT31;67769;51.972;5.668;2023-03-08T14:41:04;7.2;55.7
78479;SHT31;67769;51.972;5.668;2023-03-08T14:43:36;7.2;55.7
78479;SHT31;67769;51.972;5.668;2023-03-08T14:46:06;7.2;55.7
78479;SHT31;67769;51.972;5.668;2023-03-08T14:48:37;7.2;55.9
78479;SHT31;67769;51.972;5.668;2023-03-08T14:51:26;7.2;56.7
78479;SHT31;67769;51.972;5.668;2023-03-08T14:53:58;7.3;57.2
78479;SHT31;67769;51.972;5.668;2023-03-08T14:56:29;7.3;56.5
78479;SHT31;67769;51.972;5.668;2023-03-08T14:59:01;7.3;56.7
78479;SHT31;67769;51.972;5.668;2023-03-08T15:01:35;7.3;57.0
78479;SHT31;67769;51.972;5.668;2023-03-08T15:04:15;7.2;57.0
78479;SHT31;67769;51.972;5.668;2023-03-08T15:06:46;7.2;57.6
78479;SHT31;67769;51.972;5.668;2023-03-08T15:09:20;7.2;56.7
78479;SHT31;67769;51.972;5.668;2023-03-08T15:11:51;7.2;57.2
78479;SHT31;67769;51.972;5.668;2023-03-08T15:14:25;7.2;57.2
78479;SHT31;67769;51.972;5.668;2023-03-08T15:16:56;7.2;57.3
78479;SHT31;67769;51.972;5.668;2023-03-08T15:19:28;7.1;57.0
78479;SHT31;67769;51.972;5.668;2023-03-08T15:21:58;7.1;57.0
78479;SHT31;67769;51.972;5.668;2023-03-08T15:24:28;7.1;57.1
78479;SHT31;67769;51.972;5.668;2023-03-08T15:26:59;7.1;57.2
78479;SHT31;67769;51.972;5.668;2023-03-08T15:29:31;7.0;57.5
78479;SHT31;67769;51.972;5.668;2023-03-08T15:32:03;7.0;58.4
78479;SHT31;67769;51.972;5.668;2023-03-08T15:34:33;7.0;58.7
78479;SHT31;67769;51.972;5.668;2023-03-08T15:37:03;6.9;58.7
78479;SHT31;67769;51.972;5.668;2023-03-08T15:39:33;6.9;59.5
78479;SHT31;67769;51.972;5.668;2023-03-08T15:42:03;6.9;59.9
78479;SHT31;67769;51.972;5.668;2023-03-08T15:44:33;6.9;60.1
78479;SHT31;67769;51.972;5.668;2023-03-08T15:47:02;6.9;60.1
78479;SHT31;67769;51.972;5.668;2023-03-08T15:49:32;6.8;60.0
78479;SHT31;67769;51.972;5.668;2023-03-08T15:52:02;6.8;60.4
78479;SHT31;67769;51.972;5.668;2023-03-08T15:54:31;6.8;60.1
78479;SHT31;67769;51.972;5.668;2023-03-08T15:57:01;6.8;60.1
78479;SHT31;67769;51.972;5.668;2023-03-08T15:59:30;6.7;60.7
78479;SHT31;67769;51.972;5.668;2023-03-08T16:02:00;6.7;61.6
78479;SHT31;67769;51.972;5.668;2023-03-08T16:04:30;6.6;61.0
78479;SHT31;67769;51.972;5.668;2023-03-08T16:06:59;6.6;61.5
78479;SHT31;67769;51.972;5.668;2023-03-08T16:09:29;6.6;61.7
78479;SHT31;67769;51.972;5.668;2023-03-08T16:11:59;6.6;61.8
78479;SHT31;67769;51.972;5.668;2023-03-08T16:14:29;6.5;61.9
78479;SHT31;67769;51.972;5.668;2023-03-08T16:16:58;6.5;61.6
78479;SHT31;67769;51.972;5.668;2023-03-08T16:19:31;6.5;62.1
78479;SHT31;67769;51.972;5.668;2023-03-08T16:22:02;6.4;62.1
78479;SHT31;67769;51.972;5.668;2023-03-08T16:24:34;6.4;62.4
78479;SHT31;67769;51.972;5.668;2023-03-08T16:27:04;6.4;62.8
78479;SHT31;67769;51.972;5.668;2023-03-08T16:29:33;6.4;62.5
78479;SHT31;67769;51.972;5.668;2023-03-08T16:32:03;6.4;62.7
78479;SHT31;67769;51.972;5.668;2023-03-08T16:34:33;6.4;62.7
78479;SHT31;67769;51.972;5.668;2023-03-08T16:37:04;6.4;62.7
78479;SHT31;67769;51.972;5.668;2023-03-08T16:39:33;6.3;62.7
78479;SHT31;67769;51.972;5.668;2023-03-08T16:42:03;6.3;63.0
78479;SHT31;67769;51.972;5.668;2023-03-08T16:44:33;6.3;63.1
78479;SHT31;67769;51.972;5.668;2023-03-08T16:47:03;6.3;63.1
78479;SHT31;67769;51.972;5.668;2023-03-08T16:49:35;6.3;63.2
78479;SHT31;67769;51.972;5.668;2023-03-08T16:52:04;6.3;63.2
78479;SHT31;67769;51.972;5.668;2023-03-08T16:54:34;6.3;63.1
78479;SHT31;67769;51.972;5.668;2023-03-08T16:57:06;6.3;62.9